createdAt,value
2019-02-14T00:01:05.449Z,18.63
2019-02-14T00:03:36.637Z,18.63
2019-02-14T00:06:08.053Z,18.47
2019-02-14T00:08:39.125Z,18.63
2019-02-14T00:11:10.540Z,18.20
2019-02-14T00:13:41.635Z,17.23
2019-02-14T00:16:12.932Z,18.17
2019-02-14T00:18:43.980Z,17.37
2019-02-14T00:21:15.327Z,18.63
2019-02-14T00:23:46.442Z,19.25
2019-02-14T00:26:17.729Z,17.80
2019-02-14T00:28:48.849Z,19.37
2019-02-14T00:31:20.324Z,18.30
2019-02-14T00:33:51.392Z,18.15
2019-02-14T00:36:22.908Z,19.50
2019-02-14T00:38:54.021Z,18.60
2019-02-14T00:41:25.402Z,19.67
2019-02-14T00:43:56.468Z,18.33
2019-02-14T00:46:27.726Z,20.60
2019-02-14T00:48:58.788Z,18.62
2019-02-14T00:51:30.186Z,20.80
2019-02-14T00:54:01.252Z,19.48
2019-02-14T00:56:32.678Z,19.33
2019-02-14T00:59:03.825Z,19.50
2019-02-14T01:01:35.166Z,18.73
2019-02-14T01:04:06.256Z,18.10
2019-02-14T01:06:37.871Z,18.00
2019-02-14T01:09:08.962Z,17.27
2019-02-14T01:11:40.376Z,18.70
2019-02-14T01:14:11.613Z,19.27
2019-02-14T01:16:42.934Z,18.65
2019-02-14T01:19:15.470Z,20.23
2019-02-14T01:21:46.995Z,19.42
2019-02-14T01:24:18.067Z,18.20
2019-02-14T01:26:49.492Z,19.35
2019-02-14T01:29:20.575Z,19.48
2019-02-14T01:31:51.981Z,19.00
2019-02-14T01:34:23.086Z,18.52
2019-02-14T01:36:54.680Z,19.35
2019-02-14T01:39:25.812Z,20.55
2019-02-14T01:41:57.104Z,19.75
2019-02-14T01:44:28.178Z,19.30
2019-02-14T01:46:59.568Z,19.45
2019-02-14T01:49:30.641Z,20.02
2019-02-14T01:52:01.960Z,19.73
2019-02-14T01:54:33.036Z,19.82
2019-02-14T01:57:04.360Z,19.90
2019-02-14T01:59:35.601Z,19.77
2019-02-14T02:02:07.155Z,21.80
2019-02-14T02:04:38.344Z,21.73
2019-02-14T02:07:21.434Z,20.80
2019-02-14T02:09:52.503Z,20.97
2019-02-14T02:12:24.161Z,19.65
2019-02-14T02:14:55.298Z,20.25
2019-02-14T02:17:26.616Z,17.98
2019-02-14T02:19:57.799Z,19.20
2019-02-14T02:22:29.212Z,20.85
2019-02-14T02:25:00.649Z,20.05
2019-02-14T02:27:32.011Z,18.50
2019-02-14T02:30:03.365Z,20.95
2019-02-14T02:32:35.521Z,18.23
2019-02-14T02:35:06.800Z,20.00
2019-02-14T02:37:38.247Z,21.55
2019-02-14T02:40:09.673Z,20.40
2019-02-14T02:42:40.978Z,20.92
2019-02-14T02:45:13.648Z,20.62
2019-02-14T02:47:45.368Z,20.72
2019-02-14T02:50:16.505Z,19.77
2019-02-14T02:52:47.764Z,20.80
2019-02-14T02:55:18.892Z,21.75
2019-02-14T02:57:50.267Z,21.20
2019-02-14T03:00:21.310Z,21.33
2019-02-14T03:03:00.843Z,23.05
2019-02-14T03:05:32.010Z,22.07
2019-02-14T03:08:03.333Z,21.77
2019-02-14T03:10:34.401Z,21.97
2019-02-14T03:13:05.644Z,22.02
2019-02-14T03:15:36.780Z,21.57
2019-02-14T03:18:07.957Z,23.38
2019-02-14T03:20:39.092Z,23.05
2019-02-14T03:23:10.411Z,23.65
2019-02-14T03:25:41.516Z,22.27
2019-02-14T03:28:12.900Z,22.85
2019-02-14T03:30:44.036Z,23.22
2019-02-14T03:33:15.570Z,23.25
2019-02-14T03:35:46.674Z,21.42
2019-02-14T03:38:18.092Z,22.75
2019-02-14T03:41:08.224Z,21.70
2019-02-14T03:43:39.643Z,21.82
2019-02-14T03:46:22.816Z,22.00
2019-02-14T03:48:54.108Z,23.95
2019-02-14T03:51:25.179Z,27.40
2019-02-14T03:53:56.528Z,22.30
2019-02-14T03:56:27.603Z,22.52
2019-02-14T03:58:59.046Z,22.27
2019-02-14T04:01:30.205Z,24.47
2019-02-14T04:04:01.540Z,23.25
2019-02-14T04:06:32.641Z,22.17
2019-02-14T04:09:07.069Z,21.33
2019-02-14T04:11:38.257Z,21.90
2019-02-14T04:14:28.560Z,21.90
2019-02-14T04:16:59.669Z,21.27
2019-02-14T04:19:30.909Z,20.90
2019-02-14T04:22:02.022Z,21.85
2019-02-14T04:24:33.191Z,21.50
2019-02-14T04:27:04.464Z,21.65
2019-02-14T04:29:35.769Z,23.22
2019-02-14T04:32:07.105Z,22.02
2019-02-14T04:34:38.474Z,22.32
2019-02-14T04:37:09.794Z,21.77
2019-02-14T04:39:41.077Z,25.27
2019-02-14T04:42:12.217Z,23.35
2019-02-14T04:44:43.421Z,23.98
2019-02-14T04:47:14.519Z,24.05
2019-02-14T04:49:45.772Z,25.43
2019-02-14T04:52:16.873Z,24.00
2019-02-14T04:54:48.089Z,22.22
2019-02-14T04:57:19.180Z,23.07
2019-02-14T04:59:50.503Z,23.45
2019-02-14T05:02:21.635Z,22.30
2019-02-14T05:04:53.161Z,24.55
2019-02-14T05:07:24.346Z,23.90
2019-02-14T05:09:55.733Z,23.75
2019-02-14T05:12:27.029Z,22.52
2019-02-14T05:14:58.279Z,23.87
2019-02-14T05:17:29.393Z,23.95
2019-02-14T05:20:00.663Z,22.40
2019-02-14T05:22:31.734Z,23.10
2019-02-14T05:25:03.217Z,24.65
2019-02-14T05:27:34.309Z,23.27
2019-02-14T05:30:05.874Z,23.20
2019-02-14T05:32:36.984Z,23.57
2019-02-14T05:35:08.655Z,25.23
2019-02-14T05:37:39.747Z,23.70
2019-02-14T05:40:11.017Z,24.27
2019-02-14T05:42:42.167Z,24.32
2019-02-14T05:45:13.882Z,21.95
2019-02-14T05:47:45.001Z,22.75
2019-02-14T05:50:16.839Z,24.05
2019-02-14T05:52:48.267Z,23.73
2019-02-14T05:55:19.716Z,22.60
2019-02-14T05:57:51.066Z,23.98
2019-02-14T06:00:22.535Z,24.10
2019-02-14T06:02:53.813Z,20.97
2019-02-14T06:05:25.219Z,23.62
2019-02-14T06:07:56.505Z,22.73
2019-02-14T06:10:29.243Z,22.73
2019-02-14T06:13:00.541Z,22.87
2019-02-14T06:15:31.865Z,21.90
2019-02-14T06:18:03.273Z,22.50
2019-02-14T06:20:34.925Z,23.45
2019-02-14T06:23:06.017Z,24.25
2019-02-14T06:25:37.465Z,22.87
2019-02-14T06:28:08.574Z,24.77
2019-02-14T06:30:41.167Z,25.52
2019-02-14T06:33:13.431Z,24.75
2019-02-14T06:35:44.785Z,24.55
2019-02-14T06:38:16.126Z,25.10
2019-02-14T06:40:47.593Z,26.00
2019-02-14T06:43:19.273Z,23.85
2019-02-14T06:45:50.704Z,26.02
2019-02-14T06:48:21.805Z,25.00
2019-02-14T06:50:53.201Z,23.30
2019-02-14T06:53:24.522Z,23.83
2019-02-14T06:55:55.995Z,25.75
2019-02-14T06:58:27.153Z,25.00
2019-02-14T07:00:58.798Z,22.42
2019-02-14T07:03:29.879Z,24.12
2019-02-14T07:06:01.285Z,24.87
2019-02-14T07:08:32.350Z,24.77
2019-02-14T07:11:03.784Z,25.30
2019-02-14T07:13:34.854Z,25.85
2019-02-14T07:16:06.082Z,25.85
2019-02-14T07:18:37.391Z,25.20
2019-02-14T07:21:08.844Z,27.27
2019-02-14T07:23:40.051Z,25.65
2019-02-14T07:26:11.470Z,25.20
2019-02-14T07:28:42.983Z,23.05
2019-02-14T07:31:14.166Z,24.52
2019-02-14T07:33:45.296Z,27.25
2019-02-14T07:36:16.677Z,26.75
2019-02-14T07:38:48.060Z,25.00
2019-02-14T07:41:19.469Z,27.37
2019-02-14T07:43:50.603Z,25.85
2019-02-14T07:46:22.997Z,27.60
2019-02-14T07:48:54.391Z,25.97
2019-02-14T07:51:25.792Z,25.23
2019-02-14T07:53:57.163Z,26.85
2019-02-14T07:56:29.409Z,26.70
2019-02-14T07:59:00.712Z,23.95
2019-02-14T08:01:32.212Z,28.45
2019-02-14T08:04:03.302Z,27.73
2019-02-14T08:06:34.813Z,26.12
2019-02-14T08:09:06.989Z,27.23
2019-02-14T08:11:38.325Z,24.87
2019-02-14T08:14:09.410Z,25.25
2019-02-14T08:16:40.731Z,25.90
2019-02-14T08:19:11.976Z,23.93
2019-02-14T08:21:43.426Z,25.13
2019-02-14T08:24:14.525Z,26.43
2019-02-14T08:26:45.661Z,25.20
2019-02-14T08:29:16.733Z,26.27
2019-02-14T08:31:48.198Z,25.93
2019-02-14T08:34:19.241Z,24.67
2019-02-14T08:36:50.481Z,25.40
2019-02-14T08:39:21.556Z,24.77
2019-02-14T08:41:52.789Z,24.50
2019-02-14T08:44:23.956Z,24.53
2019-02-14T08:46:55.373Z,24.63
2019-02-14T08:49:26.444Z,27.07
2019-02-14T08:51:57.887Z,25.40
2019-02-14T08:54:30.143Z,25.33
2019-02-14T08:57:01.497Z,24.50
2019-02-14T08:59:32.744Z,23.97
2019-02-14T09:02:04.093Z,25.07
2019-02-14T09:04:35.376Z,24.10
2019-02-14T09:07:06.696Z,25.43
2019-02-14T09:09:37.892Z,24.60
2019-02-14T09:12:09.292Z,24.20
2019-02-14T09:14:41.743Z,23.50
2019-02-14T09:17:13.115Z,25.50
2019-02-14T09:19:44.747Z,23.77
2019-02-14T09:22:16.116Z,24.47
2019-02-14T09:24:47.219Z,24.57
2019-02-14T09:27:18.917Z,25.37
2019-02-14T09:29:50.199Z,23.00
2019-02-14T09:32:25.331Z,23.60
2019-02-14T09:34:56.439Z,23.53
2019-02-14T09:37:27.818Z,22.90
2019-02-14T09:39:59.457Z,23.50
2019-02-14T09:42:31.001Z,23.50
2019-02-14T09:45:02.099Z,22.87
2019-02-14T09:47:33.700Z,24.47
2019-02-14T09:50:06.384Z,21.93
2019-02-14T09:52:37.736Z,22.13
2019-02-14T09:55:09.374Z,22.33
2019-02-14T09:57:40.734Z,21.83
2019-02-14T10:00:14.329Z,23.07
2019-02-14T10:02:47.222Z,25.00
2019-02-14T10:05:18.281Z,23.50
2019-02-14T10:07:49.727Z,24.70
2019-02-14T10:10:20.897Z,24.73
2019-02-14T10:12:52.523Z,25.93
2019-02-14T10:15:23.688Z,25.37
2019-02-14T10:17:55.022Z,24.70
2019-02-14T10:20:26.280Z,25.20
2019-02-14T10:22:57.682Z,26.27
2019-02-14T10:25:28.802Z,27.47
2019-02-14T10:28:00.567Z,26.50
2019-02-14T10:30:31.714Z,27.43
2019-02-14T10:33:03.221Z,27.73
2019-02-14T10:35:34.548Z,27.73
2019-02-14T10:38:06.278Z,26.40
2019-02-14T10:40:37.510Z,26.93
2019-02-14T10:43:09.162Z,26.27
2019-02-14T10:45:40.301Z,24.20
2019-02-14T10:48:12.022Z,25.07
2019-02-14T10:50:43.154Z,23.80
2019-02-14T10:53:14.727Z,24.17
2019-02-14T10:55:46.096Z,23.20
2019-02-14T10:58:17.846Z,24.40
2019-02-14T11:00:48.907Z,23.23
2019-02-14T11:03:20.239Z,24.50
2019-02-14T11:05:51.514Z,24.13
2019-02-14T11:08:31.438Z,24.00
2019-02-14T11:10:56.603Z,23.07
2019-02-14T11:13:27.930Z,24.43
2019-02-14T11:15:58.972Z,24.50
2019-02-14T11:18:30.366Z,23.67
2019-02-14T11:21:01.633Z,24.57
2019-02-14T11:23:33.077Z,23.60
2019-02-14T11:26:04.167Z,23.70
2019-02-14T11:28:35.810Z,23.30
2019-02-14T11:31:06.858Z,23.53
2019-02-14T11:33:38.272Z,23.73
2019-02-14T11:36:09.458Z,25.10
2019-02-14T11:38:41.010Z,24.30
2019-02-14T11:41:12.215Z,24.10
2019-02-14T11:43:43.470Z,24.17
2019-02-14T11:46:14.556Z,24.30
2019-02-14T11:48:47.858Z,25.83
2019-02-14T11:51:18.956Z,24.60
2019-02-14T11:53:50.201Z,25.63
2019-02-14T11:56:40.333Z,24.27
2019-02-14T11:59:11.571Z,25.30
2019-02-14T12:01:42.784Z,24.37
2019-02-14T12:04:14.346Z,26.07
2019-02-14T12:06:45.529Z,25.67
2019-02-14T12:09:17.305Z,24.10
2019-02-14T12:11:48.425Z,26.40
2019-02-14T12:14:19.845Z,24.80
2019-02-14T12:16:51.313Z,23.80
2019-02-14T12:19:23.250Z,23.63
2019-02-14T12:21:54.369Z,23.60
2019-02-14T12:24:25.641Z,24.00
2019-02-14T12:26:56.800Z,24.00
2019-02-14T12:29:28.455Z,22.43
2019-02-14T12:31:59.560Z,22.30
2019-02-14T12:34:30.838Z,20.37
2019-02-14T12:37:02.128Z,20.93
2019-02-14T12:39:33.559Z,20.43
2019-02-14T12:42:04.687Z,20.83
2019-02-14T12:44:36.016Z,20.23
2019-02-14T12:47:07.152Z,21.60
2019-02-14T12:49:38.509Z,19.93
2019-02-14T12:52:10.913Z,21.07
2019-02-14T12:54:42.242Z,20.60
2019-02-14T12:57:13.573Z,22.20
2019-02-14T12:59:45.146Z,19.67
2019-02-14T13:02:16.208Z,19.47
2019-02-14T13:04:47.447Z,20.07
2019-02-14T13:07:20.357Z,20.70
2019-02-14T13:09:51.575Z,21.77
2019-02-14T13:12:22.768Z,21.30
2019-02-14T13:14:54.279Z,20.83
2019-02-14T13:17:25.334Z,21.90
2019-02-14T13:19:56.974Z,22.40
2019-02-14T13:22:28.163Z,21.00
2019-02-14T13:24:59.372Z,22.00
2019-02-14T13:27:30.543Z,21.67
2019-02-14T13:30:02.062Z,22.00
2019-02-14T13:32:33.258Z,22.13
2019-02-14T13:35:06.189Z,23.70
2019-02-14T13:37:37.354Z,22.73
2019-02-14T13:40:09.072Z,23.53
2019-02-14T13:42:40.292Z,23.97
2019-02-14T13:45:13.756Z,23.00
2019-02-14T13:47:45.025Z,22.73
2019-02-14T13:50:16.361Z,23.67
2019-02-14T13:52:47.771Z,21.47
2019-02-14T13:55:19.029Z,21.77
2019-02-14T13:57:50.804Z,20.33
2019-02-14T14:00:24.902Z,21.30
2019-02-14T14:02:56.124Z,19.63
2019-02-14T14:05:27.827Z,21.10
2019-02-14T14:08:00.335Z,20.37
2019-02-14T14:10:31.977Z,19.93
2019-02-14T14:13:03.441Z,20.03
2019-02-14T14:15:34.740Z,20.50
2019-02-14T14:18:05.833Z,20.07
2019-02-14T14:20:37.149Z,20.40
2019-02-14T14:23:08.329Z,20.80
2019-02-14T14:25:40.045Z,20.60
2019-02-14T14:28:11.331Z,19.87
2019-02-14T14:30:42.840Z,19.07
2019-02-14T14:33:13.951Z,20.60
2019-02-14T14:35:46.563Z,18.83
2019-02-14T14:38:17.897Z,21.17
2019-02-14T14:40:49.260Z,20.73
2019-02-14T14:43:28.644Z,18.73
2019-02-14T14:46:21.176Z,18.73
2019-02-14T14:48:52.255Z,19.67
2019-02-14T14:51:24.009Z,20.10
2019-02-14T14:53:55.363Z,19.93
2019-02-14T14:56:26.883Z,19.70
2019-02-14T14:58:58.045Z,20.27
2019-02-14T15:01:29.651Z,19.70
2019-02-14T15:04:00.845Z,21.63
2019-02-14T15:06:32.194Z,20.73
2019-02-14T15:09:03.719Z,21.90
2019-02-14T15:11:35.665Z,19.87
2019-02-14T15:14:06.895Z,20.87
2019-02-14T15:16:38.566Z,20.23
2019-02-14T15:19:10.137Z,22.00
2019-02-14T15:21:41.485Z,22.03
2019-02-14T15:24:12.578Z,21.73
2019-02-14T15:26:43.982Z,21.77
2019-02-14T15:29:15.319Z,21.17
2019-02-14T15:31:46.673Z,20.67
2019-02-14T15:34:17.874Z,21.37
2019-02-14T15:36:49.520Z,21.10
2019-02-14T15:39:22.167Z,21.37
2019-02-14T15:41:55.943Z,21.13
2019-02-14T15:44:26.546Z,20.60
2019-02-14T15:46:57.857Z,22.03
2019-02-14T15:49:29.171Z,22.87
2019-02-14T15:52:00.620Z,22.53
2019-02-14T15:54:33.087Z,22.33
2019-02-14T15:57:05.388Z,23.10
2019-02-14T15:59:37.046Z,22.50
2019-02-14T16:02:08.564Z,22.77
2019-02-14T16:04:39.899Z,22.87
2019-02-14T16:07:13.618Z,21.97
2019-02-14T16:09:45.857Z,23.60
2019-02-14T16:12:17.758Z,23.63
2019-02-14T16:14:50.076Z,23.23
2019-02-14T16:17:21.297Z,23.60
2019-02-14T16:19:57.547Z,23.23
2019-02-14T16:22:30.297Z,23.57
2019-02-14T16:25:04.483Z,21.83
2019-02-14T16:27:39.294Z,23.27
2019-02-14T16:30:21.755Z,23.40
2019-02-14T16:32:53.191Z,24.27
2019-02-14T16:35:24.972Z,23.13
2019-02-14T16:37:57.947Z,23.60
2019-02-14T16:40:38.000Z,21.73
2019-02-14T16:43:02.389Z,22.30
2019-02-14T16:45:33.492Z,21.80
2019-02-14T16:48:04.959Z,22.20
2019-02-14T16:50:36.247Z,22.20
2019-02-14T16:53:07.530Z,22.87
2019-02-14T16:55:38.606Z,22.63
2019-02-14T16:58:09.815Z,20.40
2019-02-14T17:00:40.895Z,20.70
2019-02-14T17:03:12.149Z,22.50
2019-02-14T17:05:43.511Z,20.57
2019-02-14T17:08:14.920Z,21.77
2019-02-14T17:10:46.022Z,22.77
2019-02-14T17:13:17.531Z,21.50
2019-02-14T17:15:48.799Z,19.20
2019-02-14T17:18:20.117Z,21.70
2019-02-14T17:20:51.235Z,20.17
2019-02-14T17:23:22.842Z,21.13
2019-02-14T17:25:54.026Z,23.13
2019-02-14T17:28:25.301Z,21.63
2019-02-14T17:30:56.397Z,23.97
2019-02-14T17:33:27.822Z,21.77
2019-02-14T17:36:17.964Z,22.90
2019-02-14T17:38:49.235Z,21.53
2019-02-14T17:41:20.386Z,21.47
2019-02-14T17:43:51.749Z,21.57
2019-02-14T17:46:22.872Z,22.70
2019-02-14T17:48:54.341Z,22.60
2019-02-14T17:51:26.605Z,22.00
2019-02-14T17:53:58.065Z,21.70
2019-02-14T17:56:29.114Z,21.40
2019-02-14T17:59:01.011Z,22.67
2019-02-14T18:01:34.155Z,21.03
2019-02-14T18:04:05.423Z,21.53
2019-02-14T18:06:36.495Z,21.60
2019-02-14T18:09:07.806Z,20.33
2019-02-14T18:11:39.049Z,22.07
2019-02-14T18:14:10.385Z,22.93
2019-02-14T18:16:41.483Z,22.00
2019-02-14T18:19:12.729Z,22.30
2019-02-14T18:21:43.877Z,21.70
2019-02-14T18:24:15.282Z,23.97
2019-02-14T18:26:46.408Z,24.30
2019-02-14T18:29:17.781Z,20.97
2019-02-14T18:31:48.971Z,21.00
2019-02-14T18:34:20.243Z,20.43
2019-02-14T18:36:51.333Z,21.37
2019-02-14T18:39:22.703Z,22.70
2019-02-14T18:41:53.841Z,23.37
2019-02-14T18:44:25.262Z,23.87
2019-02-14T18:46:56.451Z,22.13
2019-02-14T18:49:27.837Z,20.50
2019-02-14T18:51:58.978Z,18.60
2019-02-14T18:54:30.453Z,20.70
2019-02-14T18:57:01.597Z,21.20
2019-02-14T18:59:41.647Z,22.53
2019-02-14T19:02:12.701Z,21.10
2019-02-14T19:04:43.994Z,21.73
2019-02-14T19:07:15.136Z,22.90
2019-02-14T19:09:46.549Z,22.20
2019-02-14T19:12:17.846Z,21.10
2019-02-14T19:14:49.125Z,24.70
2019-02-14T19:17:20.215Z,23.93
2019-02-14T19:19:51.713Z,21.20
2019-02-14T19:22:24.044Z,21.67
2019-02-14T19:24:55.565Z,20.93
2019-02-14T19:27:45.740Z,20.90
2019-02-14T19:30:17.234Z,20.27
2019-02-14T19:32:48.409Z,21.00
2019-02-14T19:35:23.026Z,21.60
2019-02-14T19:37:52.529Z,20.17
2019-02-14T19:40:23.926Z,19.70
2019-02-14T19:42:55.021Z,20.37
2019-02-14T19:45:36.053Z,20.47
2019-02-14T19:47:59.259Z,22.27
2019-02-14T19:50:30.540Z,19.80
2019-02-14T19:53:01.713Z,20.77
2019-02-14T19:55:33.155Z,20.30
2019-02-14T19:58:04.305Z,20.87
2019-02-14T20:00:35.635Z,21.57
2019-02-14T20:03:06.810Z,18.83
2019-02-14T20:05:38.144Z,21.70
2019-02-14T20:08:09.323Z,19.10
2019-02-14T20:10:40.662Z,21.07
2019-02-14T20:13:11.905Z,21.73
2019-02-14T20:15:43.327Z,19.70
2019-02-14T20:18:14.621Z,19.67
2019-02-14T20:20:46.116Z,20.87
2019-02-14T20:23:17.203Z,19.43
2019-02-14T20:25:48.724Z,22.57
2019-02-14T20:28:19.874Z,19.87
2019-02-14T20:30:51.212Z,21.30
2019-02-14T20:33:22.308Z,21.80
2019-02-14T20:35:53.518Z,22.53
2019-02-14T20:38:24.692Z,18.77
2019-02-14T20:40:56.109Z,20.27
2019-02-14T20:43:27.255Z,18.50
2019-02-14T20:45:58.613Z,21.50
2019-02-14T20:48:29.785Z,20.30
2019-02-14T20:51:01.205Z,20.90
2019-02-14T20:53:32.553Z,20.27
2019-02-14T20:56:04.005Z,19.97
2019-02-14T20:58:35.273Z,20.73
2019-02-14T21:01:09.056Z,19.50
2019-02-14T21:03:40.285Z,18.67
2019-02-14T21:06:11.625Z,19.40
2019-02-14T21:08:42.833Z,19.10
2019-02-14T21:11:14.376Z,19.97
2019-02-14T21:13:45.624Z,17.00
2019-02-14T21:16:17.182Z,17.47
2019-02-14T21:18:49.766Z,18.77
2019-02-14T21:21:21.495Z,18.80
2019-02-14T21:23:52.674Z,18.73
2019-02-14T21:26:24.029Z,17.13
2019-02-14T21:28:55.398Z,17.67
2019-02-14T21:31:26.895Z,18.63
2019-02-14T21:33:58.057Z,18.27
2019-02-14T21:36:29.492Z,19.47
2019-02-14T21:39:00.700Z,19.70
2019-02-14T21:41:33.704Z,20.63
2019-02-14T21:44:04.998Z,21.80
2019-02-14T21:46:55.678Z,21.80
2019-02-14T21:49:26.883Z,23.07
2019-02-14T21:51:58.380Z,22.57
2019-02-14T21:54:29.661Z,21.50
2019-02-14T21:57:01.111Z,23.83
2019-02-14T21:59:32.630Z,21.53
2019-02-14T22:02:06.390Z,21.07
2019-02-14T22:04:38.030Z,21.00
2019-02-14T22:07:09.550Z,20.20
2019-02-14T22:09:52.323Z,20.23
2019-02-14T22:12:38.844Z,20.07
2019-02-14T22:14:59.391Z,20.03
2019-02-14T22:17:30.752Z,21.20
2019-02-14T22:20:01.965Z,21.67
2019-02-14T22:22:33.722Z,19.77
2019-02-14T22:25:05.099Z,21.57
2019-02-14T22:27:36.409Z,21.90
2019-02-14T22:30:12.699Z,21.57
2019-02-14T22:32:44.222Z,21.73
2019-02-14T22:35:15.447Z,21.80
2019-02-14T22:37:46.920Z,19.93
2019-02-14T22:40:18.131Z,20.53
2019-02-14T22:42:49.531Z,21.40
2019-02-14T22:45:20.675Z,21.47
2019-02-14T22:47:51.965Z,21.13
2019-02-14T22:50:24.057Z,21.50
2019-02-14T22:52:55.448Z,19.03
2019-02-14T22:55:26.634Z,21.53
2019-02-14T22:57:58.151Z,22.30
2019-02-14T23:00:37.508Z,23.13
2019-02-14T23:03:10.452Z,23.07
2019-02-14T23:05:41.697Z,22.87
2019-02-14T23:08:13.081Z,24.20
2019-02-14T23:10:44.324Z,23.30
2019-02-14T23:13:15.655Z,22.90
2019-02-14T23:15:46.879Z,22.23
2019-02-14T23:18:18.349Z,20.20
2019-02-14T23:20:49.509Z,21.03
2019-02-14T23:23:20.864Z,22.70
2019-02-14T23:25:52.081Z,21.77
2019-02-14T23:28:23.638Z,23.23
2019-02-14T23:30:54.769Z,25.63
2019-02-14T23:33:26.135Z,23.07
2019-02-14T23:35:57.260Z,23.30
2019-02-14T23:38:28.623Z,22.10
2019-02-14T23:40:59.821Z,22.47
2019-02-14T23:43:31.223Z,23.30
2019-02-14T23:46:02.329Z,24.07
2019-02-14T23:48:33.710Z,22.63
2019-02-14T23:51:04.926Z,24.03
2019-02-14T23:53:36.313Z,22.43
2019-02-14T23:56:18.899Z,20.80
2019-02-14T23:58:50.428Z,23.23
